Time;durP1;ratioP1;P1;durP2;ratioP2;P2;SDS_P1;SDS_P2;PMS_P1;PMS_P2;Temp;Humidity;BMP_temperature;BMP_pressure;BME280_temperature;BME280_humidity;BME280_pressure;Samples;Min_cycle;Max_cycle;Signal;HPM_P1;HPM_P2
2022/04/10 00:01:10;;;;;;;7.65;2.13;;;2.30;99.90;;;;;;5033668;28;20052;-79
2022/04/10 00:03:35;;;;;;;8.38;2.03;;;2.30;99.90;;;;;;5050138;28;20059;-78
2022/04/10 00:06:01;;;;;;;9.18;2.03;;;2.30;99.90;;;;;;5050616;28;20099;-79
2022/04/10 00:08:27;;;;;;;9.38;1.95;;;2.30;99.90;;;;;;5050401;28;20144;-79
2022/04/10 00:10:52;;;;;;;8.90;2.03;;;2.30;99.90;;;;;;5033431;28;20060;-78
2022/04/10 00:13:18;;;;;;;11.68;1.88;;;2.30;99.90;;;;;;5033895;28;20048;-78
2022/04/10 00:15:43;;;;;;;12.25;2.25;;;2.40;99.90;;;;;;5050338;28;20380;-78
2022/04/10 00:18:09;;;;;;;7.60;1.25;;;2.40;99.90;;;;;;5050182;28;20044;-78
2022/04/10 00:20:34;;;;;;;8.35;1.92;;;2.40;99.90;;;;;;5051158;28;20602;-78
2022/04/10 00:23:00;;;;;;;9.43;2.17;;;2.50;99.90;;;;;;5050175;28;20037;-79
2022/04/10 00:25:25;;;;;;;7.72;1.60;;;2.60;99.90;;;;;;5050152;28;20602;-79
2022/04/10 00:27:51;;;;;;;4.28;1.60;;;2.70;99.90;;;;;;5051049;28;20503;-78
2022/04/10 00:30:18;;;;;;;7.38;1.83;;;2.60;99.90;;;;;;5062878;28;20077;-79
2022/04/10 00:32:44;;;;;;;7.20;1.98;;;2.60;99.90;;;;;;5038983;28;20048;-79
2022/04/10 00:35:10;;;;;;;11.85;1.95;;;2.60;99.90;;;;;;5033439;28;20135;-79
2022/04/10 00:37:37;;;;;;;3.17;1.63;;;2.60;99.90;;;;;;5050188;28;20037;-79
2022/04/10 00:40:04;;;;;;;9.95;1.80;;;2.60;99.90;;;;;;5083184;28;20037;-79
2022/04/10 00:42:34;;;;;;;7.05;1.90;;;2.60;99.90;;;;;;5050181;28;20088;-79
2022/04/10 00:44:59;;;;;;;8.30;1.70;;;2.50;99.90;;;;;;5051077;28;20049;-79
2022/04/10 00:47:26;;;;;;;10.07;1.90;;;2.50;99.90;;;;;;5049760;28;20044;-79
2022/04/10 00:49:51;;;;;;;6.22;1.42;;;2.40;99.90;;;;;;5049526;28;20053;-79
2022/04/10 00:52:18;;;;;;;10.07;1.73;;;2.40;99.90;;;;;;5033366;28;20091;-79
2022/04/10 00:54:44;;;;;;;7.47;1.80;;;2.40;99.90;;;;;;5083209;28;20124;-79
2022/04/10 00:57:11;;;;;;;14.90;1.90;;;2.40;99.90;;;;;;5033245;28;20471;-79
2022/04/10 00:59:36;;;;;;;9.38;1.58;;;2.30;99.90;;;;;;5082969;28;20491;-79
2022/04/10 01:02:03;;;;;;;5.30;1.60;;;2.30;99.90;;;;;;5049798;28;20052;-79
2022/04/10 01:04:28;;;;;;;7.40;2.15;;;2.30;99.90;;;;;;5083478;28;20056;-79
2022/04/10 01:06:56;;;;;;;8.07;1.63;;;2.30;99.90;;;;;;5049795;28;20388;-79
2022/04/10 01:09:24;;;;;;;3.88;1.80;;;2.40;99.90;;;;;;5049543;28;20049;-79
2022/04/10 01:11:52;;;;;;;19.77;3.58;;;2.40;99.90;;;;;;5049362;28;20251;-79
2022/04/10 01:14:18;;;;;;;7.32;1.55;;;2.40;99.90;;;;;;5032893;28;20037;-79
2022/04/10 01:16:44;;;;;;;10.65;2.05;;;2.40;99.90;;;;;;5054244;28;20078;-79
2022/04/10 01:19:11;;;;;;;8.88;2.70;;;2.40;99.90;;;;;;5087107;28;20072;-79
2022/04/10 01:21:44;;;;;;;7.72;2.45;;;2.40;99.90;;;;;;5086876;28;20160;-78
2022/04/10 01:24:13;;;;;;;11.55;1.55;;;2.40;99.90;;;;;;5053592;28;20055;-79
2022/04/10 01:26:40;;;;;;;12.23;1.88;;;2.40;99.90;;;;;;5053346;28;20130;-79
2022/04/10 01:29:11;;;;;;;9.60;1.73;;;2.50;99.90;;;;;;5087072;28;20048;-78
2022/04/10 01:31:38;;;;;;;11.77;1.80;;;2.50;99.90;;;;;;5054837;28;20044;-79
2022/04/10 01:34:07;;;;;;;8.90;1.83;;;2.50;99.90;;;;;;5054575;28;20048;-79
2022/04/10 01:36:34;;;;;;;6.53;1.90;;;2.50;99.90;;;;;;5036634;28;20075;-79
2022/04/10 01:39:02;;;;;;;10.38;2.13;;;2.40;99.90;;;;;;5086708;28;20049;-79
2022/04/10 01:41:28;;;;;;;11.65;2.63;;;2.50;99.90;;;;;;5053041;28;20377;-79
2022/04/10 01:43:56;;;;;;;10.93;1.70;;;2.40;99.90;;;;;;5087053;28;20091;-78
2022/04/10 01:46:24;;;;;;;7.18;2.45;;;2.40;99.90;;;;;;5086656;28;20052;-80
2022/04/10 01:48:49;;;;;;;8.63;1.60;;;2.40;99.90;;;;;;5086749;28;20114;-79
2022/04/10 01:51:15;;;;;;;8.30;2.53;;;2.30;99.90;;;;;;5052646;28;20048;-79
2022/04/10 01:53:41;;;;;;;7.35;2.30;;;2.20;99.90;;;;;;5053061;28;20067;-79
2022/04/10 01:56:08;;;;;;;6.93;1.92;;;2.30;99.90;;;;;;5036208;28;20041;-79
2022/04/10 01:58:39;;;;;;;12.88;2.03;;;2.20;99.90;;;;;;5053128;28;20087;-79
2022/04/10 02:01:06;;;;;;;14.88;2.58;;;2.20;99.90;;;;;;5086235;28;20037;-79
2022/04/10 02:03:32;;;;;;;17.70;3.35;;;2.00;99.90;;;;;;5052639;28;20049;-79
2022/04/10 02:05:58;;;;;;;12.82;1.95;;;2.10;99.90;;;;;;5052858;28;20047;-79
2022/04/10 02:08:24;;;;;;;6.32;1.88;;;2.00;99.90;;;;;;5035862;28;20419;-79
2022/04/10 02:10:50;;;;;;;6.43;2.00;;;2.10;99.90;;;;;;5068872;28;20048;-79
2022/04/10 02:13:15;;;;;;;11.35;1.45;;;2.00;99.90;;;;;;5035998;28;20098;-78
2022/04/10 02:15:41;;;;;;;9.07;2.05;;;1.90;99.90;;;;;;5052549;28;20041;-78
2022/04/10 02:18:06;;;;;;;8.68;1.38;;;1.90;99.90;;;;;;5052287;28;20048;-78
2022/04/10 02:20:32;;;;;;;8.40;1.92;;;1.90;99.90;;;;;;5035355;28;20052;-79
2022/04/10 02:22:58;;;;;;;7.53;2.53;;;1.90;99.90;;;;;;5052369;28;20041;-79
2022/04/10 02:25:24;;;;;;;10.02;2.42;;;1.90;99.90;;;;;;5035301;28;20041;-78
2022/04/10 02:27:50;;;;;;;12.27;1.70;;;1.90;99.90;;;;;;5035440;28;20063;-78
2022/04/10 02:30:16;;;;;;;9.82;2.47;;;1.90;99.90;;;;;;5035454;28;20121;-79
2022/04/10 02:32:42;;;;;;;7.30;1.50;;;1.90;99.90;;;;;;5086013;28;20049;-79
2022/04/10 02:35:11;;;;;;;6.75;1.95;;;1.90;99.90;;;;;;5019076;28;20392;-79
2022/04/10 02:37:37;;;;;;;5.88;1.98;;;1.80;99.90;;;;;;5053248;28;20041;-78
2022/04/10 02:40:05;;;;;;;6.35;1.92;;;1.80;99.90;;;;;;5053246;28;20041;-78
2022/04/10 02:42:33;;;;;;;10.52;1.80;;;1.80;99.90;;;;;;5053279;28;20136;-78
2022/04/10 02:44:59;;;;;;;16.52;2.20;;;1.80;99.90;;;;;;5052297;28;20053;-78
2022/04/10 02:47:25;;;;;;;14.88;2.58;;;1.80;99.90;;;;;;5053327;28;20041;-78
2022/04/10 02:49:51;;;;;;;5.05;1.40;;;1.70;99.90;;;;;;5051812;28;20514;-78
2022/04/10 02:52:17;;;;;;;13.93;1.80;;;1.80;99.90;;;;;;5051410;28;20091;-79
2022/04/10 02:54:44;;;;;;;11.35;1.60;;;1.70;99.90;;;;;;5085282;28;20033;-78
2022/04/10 02:57:09;;;;;;;9.48;1.98;;;1.70;99.90;;;;;;5035572;28;20364;-79
2022/04/10 02:59:35;;;;;;;4.95;1.70;;;1.70;99.90;;;;;;5085143;28;20095;-78
2022/04/10 03:02:00;;;;;;;11.23;2.22;;;1.70;99.90;;;;;;5051562;28;20098;-78
2022/04/10 03:04:26;;;;;;;12.05;1.85;;;1.70;99.90;;;;;;5035100;28;20091;-79
2022/04/10 03:06:51;;;;;;;6.32;1.80;;;1.70;99.90;;;;;;5034898;28;20095;-78
2022/04/10 03:09:17;;;;;;;7.60;2.60;;;1.70;99.90;;;;;;5051540;28;20340;-79
2022/04/10 03:11:43;;;;;;;9.18;1.45;;;1.60;99.90;;;;;;5051668;28;20040;-78
2022/04/10 03:14:08;;;;;;;11.45;1.85;;;1.60;99.90;;;;;;5062453;28;20044;-79
2022/04/10 03:16:35;;;;;;;11.45;1.90;;;1.70;99.90;;;;;;5090337;28;20048;-79
2022/04/10 03:19:00;;;;;;;9.95;1.55;;;1.70;99.90;;;;;;5089054;28;20049;-79
2022/04/10 03:21:26;;;;;;;9.63;1.83;;;1.70;99.90;;;;;;5051308;28;20055;-79
2022/04/10 03:23:51;;;;;;;8.25;1.52;;;1.70;99.90;;;;;;5068144;28;20052;-79
2022/04/10 03:26:17;;;;;;;11.60;1.70;;;1.80;99.90;;;;;;5051022;28;20465;-79
2022/04/10 03:28:43;;;;;;;7.82;1.58;;;1.80;99.90;;;;;;5051226;28;20419;-79
2022/04/10 03:31:08;;;;;;;4.03;1.50;;;1.90;99.90;;;;;;5050873;28;20115;-79
2022/04/10 03:33:34;;;;;;;6.55;1.40;;;1.90;99.90;;;;;;5067673;28;20416;-79
2022/04/10 03:35:59;;;;;;;5.50;1.90;;;2.00;99.90;;;;;;5034510;28;20120;-79
2022/04/10 03:38:25;;;;;;;4.10;1.45;;;2.00;99.90;;;;;;5050059;28;20112;-79
2022/04/10 03:40:51;;;;;;;6.68;1.52;;;2.10;99.90;;;;;;5051973;28;20037;-79
2022/04/10 03:43:16;;;;;;;13.38;2.25;;;2.20;99.90;;;;;;5034646;28;20228;-79
2022/04/10 03:45:42;;;;;;;6.65;1.75;;;2.20;99.90;;;;;;5050895;28;20515;-79
2022/04/10 03:48:08;;;;;;;5.57;1.42;;;2.20;99.90;;;;;;5034616;28;20051;-79
2022/04/10 03:50:35;;;;;;;13.07;1.80;;;2.20;99.90;;;;;;5050761;28;20063;-79
2022/04/10 03:53:02;;;;;;;9.55;2.75;;;2.20;99.90;;;;;;5051826;28;20041;-79
2022/04/10 03:55:28;;;;;;;8.85;2.00;;;2.20;99.90;;;;;;5084092;28;20037;-80
2022/04/10 03:57:53;;;;;;;6.78;2.15;;;2.20;99.90;;;;;;5050731;28;20045;-79
2022/04/10 04:00:19;;;;;;;11.18;1.70;;;2.20;99.90;;;;;;5050180;28;20550;-79
2022/04/10 04:02:45;;;;;;;6.80;1.80;;;2.20;99.90;;;;;;5034198;28;20037;-79
2022/04/10 04:05:11;;;;;;;8.52;2.33;;;2.30;99.90;;;;;;5084025;28;20045;-79
2022/04/10 04:07:38;;;;;;;6.65;1.70;;;2.30;99.90;;;;;;5033665;28;20146;-79
2022/04/10 04:10:04;;;;;;;10.57;1.92;;;2.40;99.90;;;;;;5051326;28;20048;-79
2022/04/10 04:12:30;;;;;;;8.65;1.35;;;2.50;99.90;;;;;;5067489;28;20053;-79
2022/04/10 04:14:56;;;;;;;4.45;1.40;;;2.50;99.90;;;;;;5033698;28;20545;-79
2022/04/10 04:17:21;;;;;;;10.05;1.30;;;2.60;99.90;;;;;;5033672;28;20063;-79
2022/04/10 04:19:49;;;;;;;7.80;2.08;;;2.70;99.90;;;;;;5049881;28;20124;-80
2022/04/10 04:22:16;;;;;;;4.63;1.70;;;2.80;99.90;;;;;;5051231;28;20048;-79
2022/04/10 04:24:42;;;;;;;12.70;1.73;;;2.80;99.90;;;;;;5051409;28;20517;-79
2022/04/10 04:27:07;;;;;;;12.20;1.90;;;2.90;99.90;;;;;;5033597;28;20052;-80
2022/04/10 04:29:33;;;;;;;10.15;1.30;;;2.90;99.90;;;;;;5049690;28;20059;-80
2022/04/10 04:31:59;;;;;;;7.40;2.03;;;2.90;99.90;;;;;;5050170;28;20033;-79
2022/04/10 04:34:24;;;;;;;6.72;2.13;;;2.90;99.90;;;;;;5033464;28;20048;-80
2022/04/10 04:36:50;;;;;;;6.18;1.40;;;2.90;99.90;;;;;;5051126;28;20049;-79
2022/04/10 04:39:15;;;;;;;9.52;2.60;;;2.90;99.90;;;;;;5050401;28;20045;-79
2022/04/10 04:41:41;;;;;;;9.88;1.65;;;2.80;99.90;;;;;;5033316;28;20047;-79
2022/04/10 04:44:06;;;;;;;4.43;1.70;;;2.80;99.90;;;;;;5049765;28;20080;-80
2022/04/10 04:46:32;;;;;;;10.77;2.33;;;2.90;99.90;;;;;;5033228;28;20462;-79
2022/04/10 04:48:58;;;;;;;5.68;1.02;;;2.80;99.90;;;;;;5050947;28;20534;-79
2022/04/10 04:51:23;;;;;;;12.75;1.98;;;2.90;99.90;;;;;;5032698;28;20098;-79
2022/04/10 04:53:49;;;;;;;6.80;1.30;;;2.90;99.90;;;;;;5049586;28;20091;-79
2022/04/10 04:56:15;;;;;;;9.70;1.95;;;2.90;99.90;;;;;;5051020;28;20067;-79
2022/04/10 04:58:42;;;;;;;11.98;1.67;;;2.90;99.90;;;;;;5050972;28;20048;-79
2022/04/10 05:01:08;;;;;;;3.10;1.30;;;2.80;99.90;;;;;;5050624;28;20033;-79
2022/04/10 05:03:34;;;;;;;9.27;2.05;;;2.80;99.90;;;;;;5049480;28;20114;-79
2022/04/10 05:06:00;;;;;;;4.30;0.73;;;2.70;99.90;;;;;;5050749;28;20128;-79
2022/04/10 05:08:25;;;;;;;2.90;0.93;;;2.70;99.90;;;;;;5050958;28;20044;-78
2022/04/10 05:10:51;;;;;;;6.43;1.20;;;2.70;99.90;;;;;;5050589;28;20037;-79
2022/04/10 05:13:16;;;;;;;5.70;1.25;;;2.70;99.90;;;;;;5050825;28;20029;-78
2022/04/10 05:15:42;;;;;;;5.05;1.08;;;2.90;99.90;;;;;;5050863;28;20041;-79
2022/04/10 05:18:08;;;;;;;5.63;0.90;;;3.00;99.90;;;;;;5050860;28;20084;-79
2022/04/10 05:20:33;;;;;;;4.97;0.90;;;3.20;99.90;;;;;;5049276;28;20057;-79
2022/04/10 05:22:59;;;;;;;2.95;1.00;;;3.30;99.90;;;;;;5050677;28;20033;-78
2022/04/10 05:25:24;;;;;;;2.28;0.80;;;3.40;99.90;;;;;;5049634;28;20438;-78
2022/04/10 05:27:50;;;;;;;2.97;0.95;;;3.50;99.90;;;;;;5032632;28;20041;-79
2022/04/10 05:30:16;;;;;;;2.22;0.63;;;3.50;99.90;;;;;;5049245;28;20045;-78
2022/04/10 05:32:43;;;;;;;3.17;1.65;;;3.60;99.90;;;;;;5049382;28;20040;-78
2022/04/10 05:35:12;;;;;;;2.30;0.70;;;3.60;99.90;;;;;;5049241;28;20037;-78
2022/04/10 05:37:38;;;;;;;2.97;0.60;;;3.60;99.90;;;;;;5050618;28;20080;-78
2022/04/10 05:40:05;;;;;;;0.80;0.57;;;3.70;99.90;;;;;;5050330;28;20064;-79
2022/04/10 05:42:30;;;;;;;1.48;0.60;;;3.60;99.90;;;;;;5049250;28;20052;-79
2022/04/10 05:45:03;;;;;;;3.00;0.70;;;3.60;99.90;;;;;;5049300;28;20037;-78
2022/04/10 05:47:29;;;;;;;1.38;0.73;;;3.70;99.90;;;;;;5049136;28;20044;-78
2022/04/10 05:49:55;;;;;;;1.73;0.60;;;3.80;99.90;;;;;;5048885;28;20049;-78
2022/04/10 05:52:21;;;;;;;3.10;0.60;;;3.90;99.90;;;;;;5050835;28;20037;-79
2022/04/10 05:54:46;;;;;;;1.60;0.60;;;3.90;99.90;;;;;;5032405;28;20099;-78
2022/04/10 05:57:12;;;;;;;1.95;0.73;;;4.10;99.90;;;;;;5049232;28;20530;-78
2022/04/10 05:59:38;;;;;;;1.20;0.70;;;4.00;99.90;;;;;;5062639;28;20044;-79
2022/04/10 06:02:04;;;;;;;1.95;0.35;;;4.00;99.90;;;;;;5070131;28;20041;-79
2022/04/10 06:04:29;;;;;;;3.20;0.75;;;4.00;99.90;;;;;;5057724;28;20040;-78
2022/04/10 06:06:55;;;;;;;1.67;0.80;;;4.00;99.90;;;;;;5036177;28;20408;-79
2022/04/10 06:09:20;;;;;;;1.58;0.52;;;3.90;99.90;;;;;;5035877;28;20408;-79
2022/04/10 06:11:46;;;;;;;3.53;0.70;;;4.00;99.90;;;;;;5053416;28;20115;-79
2022/04/10 06:14:11;;;;;;;3.47;0.80;;;4.00;99.90;;;;;;5053751;28;20082;-79
2022/04/10 06:16:37;;;;;;;1.15;0.85;;;4.10;99.90;;;;;;5053565;28;20063;-79
2022/04/10 06:19:02;;;;;;;1.95;0.70;;;4.10;99.90;;;;;;5052450;28;20045;-79
2022/04/10 06:21:28;;;;;;;2.72;0.70;;;4.00;99.90;;;;;;5053708;28;20041;-79
2022/04/10 06:23:54;;;;;;;1.85;0.65;;;4.00;99.90;;;;;;5053630;28;20041;-79
2022/04/10 06:26:20;;;;;;;4.85;0.77;;;4.00;99.90;;;;;;5052158;28;20076;-79
2022/04/10 06:28:45;;;;;;;4.43;0.85;;;4.00;99.90;;;;;;5053712;28;20048;-79
2022/04/10 06:31:11;;;;;;;12.20;1.50;;;4.10;99.90;;;;;;5053244;28;20040;-79
2022/04/10 06:33:36;;;;;;;2.55;0.60;;;4.30;99.90;;;;;;5053301;28;20044;-79
2022/04/10 06:36:02;;;;;;;2.53;1.05;;;4.20;99.90;;;;;;5053416;28;20401;-79
2022/04/10 06:38:28;;;;;;;4.78;0.82;;;4.30;99.90;;;;;;5053404;28;20029;-79
2022/04/10 06:40:54;;;;;;;2.38;0.90;;;4.40;99.90;;;;;;5053085;28;20446;-79
2022/04/10 06:43:20;;;;;;;1.23;0.68;;;4.40;99.90;;;;;;5052010;28;20048;-79
2022/04/10 06:45:47;;;;;;;2.58;0.77;;;4.50;99.90;;;;;;5053057;28;20045;-79
2022/04/10 06:48:13;;;;;;;2.60;0.80;;;4.50;99.90;;;;;;5052210;28;20076;-79
2022/04/10 06:50:38;;;;;;;3.05;0.80;;;4.60;99.90;;;;;;5052794;28;20056;-79
2022/04/10 06:53:04;;;;;;;3.75;0.70;;;4.70;99.90;;;;;;5052962;28;20064;-79
2022/04/10 06:55:31;;;;;;;1.98;0.60;;;4.80;99.90;;;;;;5035212;28;20061;-79
2022/04/10 06:57:57;;;;;;;5.97;0.98;;;4.90;99.90;;;;;;5052952;28;20410;-79
2022/04/10 07:00:23;;;;;;;0.95;0.77;;;5.10;99.90;;;;;;5084939;28;20047;-79
2022/04/10 07:02:48;;;;;;;4.97;1.27;;;5.00;99.90;;;;;;5053055;28;20029;-79
2022/04/10 07:05:14;;;;;;;3.22;1.10;;;5.10;99.90;;;;;;5052889;28;20122;-79
2022/04/10 07:07:40;;;;;;;3.85;0.77;;;5.20;99.90;;;;;;5052930;28;20044;-79
2022/04/10 07:10:05;;;;;;;3.50;1.02;;;5.30;99.90;;;;;;5051295;28;20075;-79
2022/04/10 07:12:31;;;;;;;7.18;1.95;;;5.50;99.90;;;;;;5051731;28;20045;-79
2022/04/10 07:15:01;;;;;;;2.40;0.70;;;5.60;99.90;;;;;;5051224;28;20491;-78
2022/04/10 07:17:26;;;;;;;2.80;0.85;;;5.90;99.90;;;;;;5051488;28;20550;-79
2022/04/10 07:19:52;;;;;;;2.22;0.60;;;6.40;99.90;;;;;;5052210;28;20041;-78
2022/04/10 07:25:01;;;;;;;6.45;1.48;;;7.60;99.90;;;;;;5052326;28;20055;-80
2022/04/10 07:27:27;;;;;;;2.00;0.80;;;8.40;99.90;;;;;;5052304;28;20036;-79
2022/04/10 07:29:52;;;;;;;6.18;0.82;;;9.00;99.90;;;;;;5051992;28;20035;-79
2022/04/10 07:32:18;;;;;;;2.35;0.90;;;9.50;99.90;;;;;;5034593;28;20053;-79
2022/04/10 07:34:44;;;;;;;6.35;1.05;;;9.90;99.90;;;;;;5052344;28;20041;-79
2022/04/10 07:37:09;;;;;;;2.70;1.10;;;10.20;99.90;;;;;;5052376;28;20044;-79
2022/04/10 07:39:35;;;;;;;4.00;0.85;;;10.10;99.90;;;;;;5052140;28;20118;-79
2022/04/10 07:42:00;;;;;;;5.50;0.93;;;10.10;99.90;;;;;;5050927;28;20052;-77
2022/04/10 07:44:26;;;;;;;1.35;0.50;;;10.00;99.90;;;;;;5051073;28;20041;-79
2022/04/10 07:49:35;;;;;;;6.38;0.90;;;9.80;99.90;;;;;;5051850;28;20048;-79
2022/04/10 07:52:01;;;;;;;3.65;1.45;;;9.50;99.90;;;;;;5052027;28;20045;-79
2022/04/10 07:54:27;;;;;;;10.23;1.15;;;9.00;99.90;;;;;;5052070;28;20400;-78
2022/04/10 07:56:52;;;;;;;3.42;1.02;;;8.70;99.90;;;;;;5051729;28;20041;-79
2022/04/10 07:59:18;;;;;;;5.40;1.58;;;8.40;99.90;;;;;;5050492;28;20399;-79
2022/04/10 08:01:43;;;;;;;3.25;1.55;;;8.10;99.90;;;;;;5033840;28;20044;-79
2022/04/10 08:04:09;;;;;;;4.47;1.10;;;7.90;99.90;;;;;;5051846;28;20040;-79
2022/04/10 08:06:35;;;;;;;7.18;1.00;;;7.70;99.90;;;;;;5050421;28;20060;-80
2022/04/10 08:09:00;;;;;;;5.80;1.33;;;7.50;99.90;;;;;;5050629;28;20115;-81
2022/04/10 08:11:26;;;;;;;5.30;1.63;;;7.30;99.90;;;;;;5051357;28;20052;-79
2022/04/10 08:13:51;;;;;;;8.02;1.63;;;7.20;99.90;;;;;;5050459;28;20049;-79
2022/04/10 08:16:17;;;;;;;5.40;1.30;;;7.20;99.90;;;;;;5051734;28;20036;-80
2022/04/10 08:18:43;;;;;;;6.50;1.70;;;7.80;99.90;;;;;;5050526;28;20062;-80
2022/04/10 08:21:09;;;;;;;7.75;1.20;;;8.80;99.90;;;;;;5051268;28;20513;-80
2022/04/10 08:23:34;;;;;;;3.45;0.98;;;9.80;99.90;;;;;;5050036;28;20048;-81
2022/04/10 08:26:00;;;;;;;11.57;2.22;;;10.60;99.90;;;;;;5051368;28;20056;-81
2022/04/10 08:28:26;;;;;;;7.68;1.50;;;11.00;99.90;;;;;;5052495;28;20104;-80
2022/04/10 08:30:51;;;;;;;5.57;1.25;;;11.30;99.90;;;;;;5084593;28;20468;-80
2022/04/10 08:33:17;;;;;;;8.63;1.30;;;11.70;99.90;;;;;;5034788;28;20076;-80
2022/04/10 08:35:43;;;;;;;5.97;1.42;;;11.70;99.90;;;;;;5052996;28;20041;-80
2022/04/10 08:38:08;;;;;;;9.10;1.75;;;11.80;99.90;;;;;;5052396;28;20036;-80
2022/04/10 08:40:34;;;;;;;3.53;0.90;;;12.00;99.90;;;;;;5034356;28;20452;-80
2022/04/10 08:43:02;;;;;;;11.65;1.58;;;12.40;99.90;;;;;;5035472;28;20428;-80
2022/04/10 08:45:28;;;;;;;5.20;0.90;;;12.40;99.90;;;;;;5052762;28;20137;-80
2022/04/10 08:47:55;;;;;;;7.15;0.98;;;11.80;99.90;;;;;;5084545;28;20045;-80
2022/04/10 08:50:23;;;;;;;5.45;0.95;;;11.60;99.90;;;;;;5084169;28;20052;-79
2022/04/10 08:52:52;;;;;;;7.15;1.20;;;11.80;99.90;;;;;;5085172;28;20063;-80
2022/04/10 08:55:19;;;;;;;5.78;1.95;;;12.00;99.90;;;;;;5086039;28;20045;-80
2022/04/10 08:57:44;;;;;;;4.65;0.93;;;11.70;99.90;;;;;;5061648;28;20033;-80
2022/04/10 09:00:10;;;;;;;4.80;1.20;;;10.90;99.90;;;;;;5061005;28;20048;-80
2022/04/10 09:02:47;;;;;;;5.78;1.05;;;10.20;99.90;;;;;;5038579;28;20048;-80
2022/04/10 09:05:25;;;;;;;6.95;1.80;;;9.60;99.90;;;;;;5074729;28;20511;-80
2022/04/10 09:08:11;;;;;;;7.22;1.30;;;9.30;99.90;;;;;;5063614;28;20048;-80
2022/04/10 09:10:55;;;;;;;7.15;1.33;;;9.70;99.90;;;;;;5054885;28;20045;-80
2022/04/10 09:13:32;;;;;;;5.00;1.40;;;10.60;99.90;;;;;;5053210;28;20049;-80
2022/04/10 09:16:13;;;;;;;7.82;1.58;;;11.50;99.90;;;;;;5061953;28;20109;-80
2022/04/10 09:18:49;;;;;;;5.88;1.20;;;12.20;99.90;;;;;;5072869;28;20048;-80
2022/04/10 09:21:16;;;;;;;7.50;1.20;;;12.70;99.90;;;;;;5060819;28;20041;-80
2022/04/10 09:23:46;;;;;;;6.70;1.27;;;12.60;99.90;;;;;;5055455;28;20173;-80
2022/04/10 09:26:13;;;;;;;4.32;1.02;;;11.90;99.90;;;;;;5084871;28;20114;-80
2022/04/10 09:28:50;;;;;;;7.18;1.25;;;11.10;99.90;;;;;;5085682;28;20179;-80
2022/04/10 09:31:30;;;;;;;7.75;1.17;;;10.40;99.90;;;;;;5056497;28;20442;-80
2022/04/10 09:33:58;;;;;;;13.75;1.10;;;9.80;99.90;;;;;;5064178;28;20052;-80
2022/04/10 09:36:43;;;;;;;4.00;0.85;;;9.60;99.90;;;;;;5054652;28;20709;-80
2022/04/10 09:39:10;;;;;;;3.90;0.93;;;10.10;99.90;;;;;;5048181;28;20498;-80
2022/04/10 09:41:37;;;;;;;5.18;2.65;;;10.90;99.90;;;;;;5076442;28;20051;-80
2022/04/10 09:44:22;;;;;;;8.38;0.98;;;11.50;99.90;;;;;;5066237;28;20055;-80
2022/04/10 09:47:07;;;;;;;9.48;1.60;;;12.10;99.90;;;;;;5056698;28;20091;-80
2022/04/10 09:49:37;;;;;;;5.75;1.40;;;12.60;99.90;;;;;;5089714;28;20037;-80
2022/04/10 09:52:07;;;;;;;6.60;1.13;;;12.50;99.90;;;;;;5090662;28;20041;-79
2022/04/10 09:54:42;;;;;;;6.32;1.00;;;12.10;99.90;;;;;;5060728;28;20371;-79
2022/04/10 09:57:17;;;;;;;6.30;0.95;;;11.60;99.90;;;;;;5077473;28;20041;-80
2022/04/10 09:59:47;;;;;;;6.20;0.90;;;11.00;99.90;;;;;;5072668;28;20132;-80
2022/04/10 10:02:18;;;;;;;7.63;1.27;;;10.50;99.90;;;;;;5057195;28;20033;-80
2022/04/10 10:04:46;;;;;;;5.32;1.40;;;10.30;99.90;;;;;;5071220;28;20059;-80
2022/04/10 10:07:20;;;;;;;2.80;1.33;;;10.20;99.90;;;;;;5054861;28;20059;-80
2022/04/10 10:09:48;;;;;;;6.38;1.67;;;10.50;99.90;;;;;;5058519;28;20032;-81
2022/04/10 10:12:15;;;;;;;5.45;0.98;;;11.00;99.90;;;;;;5077708;28;20068;-80
2022/04/10 10:14:40;;;;;;;10.10;1.02;;;11.70;99.90;;;;;;5066163;28;20048;-80
2022/04/10 10:17:07;;;;;;;6.40;1.17;;;12.30;99.90;;;;;;5076752;28;20036;-80
2022/04/10 10:19:38;;;;;;;2.85;0.90;;;12.80;99.90;;;;;;5076205;28;20041;-80
2022/04/10 10:22:06;;;;;;;5.97;1.25;;;13.10;99.90;;;;;;5076769;28;20440;-80
2022/04/10 10:24:58;;;;;;;2.83;1.25;;;13.30;99.90;;;;;;5064507;28;20045;-80
2022/04/10 10:27:48;;;;;;;5.25;1.00;;;13.20;99.90;;;;;;5067186;28;20032;-81
2022/04/10 10:30:37;;;;;;;6.40;1.02;;;12.60;99.90;;;;;;5064799;28;20498;-80
2022/04/10 10:33:19;;;;;;;7.15;1.52;;;12.10;99.90;;;;;;5053226;28;20059;-80
2022/04/10 10:35:48;;;;;;;;;;;12.20;99.90;;;;;;5072117;28;20103;-81
2022/04/10 10:38:31;;;;;;;3.35;1.00;;;12.10;96.50;;;;;;5073692;28;19917;-82
2022/04/10 10:41:29;;;;;;;3.95;0.90;;;11.80;87.10;;;;;;5075124;28;20045;-81
2022/04/10 10:43:55;;;;;;;2.17;0.60;;;11.10;90.20;;;;;;5046576;28;20055;-81
2022/04/10 10:46:32;;;;;;;3.80;0.77;;;10.90;99.90;;;;;;5053067;28;20467;-80
2022/04/10 10:49:19;;;;;;;9.98;1.42;;;10.90;99.90;;;;;;5053499;28;20041;-80
2022/04/10 10:51:44;;;;;;;3.15;0.70;;;11.30;95.20;;;;;;5053287;28;20040;-80
2022/04/10 10:54:26;;;;;;;4.10;0.85;;;11.40;99.90;;;;;;5053366;28;20048;-80
2022/04/10 10:56:52;;;;;;;1.47;0.57;;;11.30;99.90;;;;;;5052274;28;20102;-80
2022/04/10 10:59:23;;;;;;;12.25;0.98;;;11.10;99.90;;;;;;5053377;28;20037;-81
2022/04/10 11:02:10;;;;;;;6.63;1.23;;;10.80;99.90;;;;;;5052225;28;20041;-80
2022/04/10 11:04:40;;;;;;;7.80;1.10;;;10.40;99.90;;;;;;5053237;28;20045;-81
2022/04/10 11:07:11;;;;;;;8.48;1.08;;;10.10;99.90;;;;;;5052227;28;20133;-80
2022/04/10 11:09:47;;;;;;;5.73;0.83;;;10.00;99.90;;;;;;5051531;28;20045;-80
2022/04/10 11:12:14;;;;;;;8.65;1.08;;;10.10;99.90;;;;;;5053074;28;20275;-80
2022/04/10 11:14:41;;;;;;;4.55;1.27;;;10.40;99.90;;;;;;5053869;28;20067;-80
2022/04/10 11:17:27;;;;;;;3.22;1.17;;;10.70;99.90;;;;;;5051478;28;20369;-80
2022/04/10 11:19:58;;;;;;;2.83;0.80;;;11.10;99.90;;;;;;5051707;28;20056;-80
2022/04/10 11:22:29;;;;;;;10.35;0.80;;;11.40;99.90;;;;;;5051819;28;20223;-79
2022/04/10 11:24:58;;;;;;;2.15;0.75;;;11.70;99.90;;;;;;5053081;28;20048;-80
2022/04/10 11:27:57;;;;;;;2.72;0.63;;;11.90;99.90;;;;;;5051677;28;20049;-81
2022/04/10 11:30:25;;;;;;;5.95;1.15;;;11.70;99.90;;;;;;5052528;28;20060;-80
2022/04/10 11:32:52;;;;;;;6.72;0.90;;;11.50;99.90;;;;;;5053347;28;20041;-80
2022/04/10 11:35:20;;;;;;;4.40;0.85;;;11.40;99.90;;;;;;5051583;28;20041;-81
2022/04/10 11:37:49;;;;;;;6.00;0.90;;;11.60;99.90;;;;;;5051392;28;20115;-79
2022/04/10 11:40:21;;;;;;;8.63;1.23;;;11.60;99.90;;;;;;5053000;28;20423;-80
2022/04/10 11:42:47;;;;;;;3.08;1.25;;;11.90;99.90;;;;;;5052606;28;20398;-80
2022/04/10 11:45:12;;;;;;;2.40;0.60;;;12.20;99.90;;;;;;5050957;28;20044;-80
2022/04/10 11:47:40;;;;;;;5.43;0.95;;;12.40;99.90;;;;;;5052411;28;20037;-80
2022/04/10 11:50:07;;;;;;;6.88;0.77;;;12.80;99.90;;;;;;5052645;28;20076;-80
2022/04/10 11:52:33;;;;;;;5.20;1.00;;;13.00;99.90;;;;;;5054529;28;20043;-80
2022/04/10 11:54:58;;;;;;;2.33;0.63;;;13.10;99.90;;;;;;5034709;28;20045;-80
2022/04/10 11:57:24;;;;;;;4.07;1.00;;;13.30;99.90;;;;;;5052253;28;20112;-80
2022/04/10 11:59:51;;;;;;;5.78;0.80;;;13.50;99.90;;;;;;5049876;28;20052;-80
2022/04/10 12:02:17;;;;;;;3.75;0.90;;;13.60;99.90;;;;;;5051008;28;20128;-80
2022/04/10 12:04:43;;;;;;;2.70;1.05;;;13.50;99.90;;;;;;5051168;28;20068;-81
2022/04/10 12:07:15;;;;;;;5.03;1.05;;;13.20;99.90;;;;;;5056193;28;20052;-81
2022/04/10 12:09:41;;;;;;;3.75;0.90;;;12.70;95.60;;;;;;5051665;28;20457;-80
2022/04/10 12:12:08;;;;;;;7.65;0.90;;;12.00;99.90;;;;;;5083097;28;20112;-80
2022/04/10 12:14:34;;;;;;;2.92;1.02;;;12.00;99.90;;;;;;5049635;28;20056;-80
2022/04/10 12:17:00;;;;;;;4.35;1.05;;;12.20;99.90;;;;;;5048138;28;20060;-81
2022/04/10 12:19:36;;;;;;;4.28;0.52;;;12.20;99.90;;;;;;5081731;28;20435;-80
2022/04/10 12:22:03;;;;;;;10.73;1.20;;;12.10;98.60;;;;;;5065013;28;20381;-80
2022/04/10 12:24:29;;;;;;;6.57;1.23;;;12.20;99.90;;;;;;5049604;28;20045;-80
2022/04/10 12:26:56;;;;;;;5.28;1.05;;;12.40;99.90;;;;;;5065590;28;20145;-80
2022/04/10 12:29:22;;;;;;;3.75;0.93;;;12.50;99.90;;;;;;5051515;28;20037;-80
2022/04/10 12:31:49;;;;;;;3.95;1.38;;;12.40;99.80;;;;;;5050457;28;20053;-80
2022/04/10 12:34:14;;;;;;;2.13;0.77;;;12.20;99.90;;;;;;5066654;28;20388;-81
2022/04/10 12:36:48;;;;;;;3.40;0.80;;;12.10;99.90;;;;;;5083773;28;20039;-81
2022/04/10 12:39:27;;;;;;;2.42;0.70;;;11.90;99.10;;;;;;5066920;28;20033;-80
2022/04/10 12:42:00;;;;;;;3.05;0.80;;;11.70;99.10;;;;;;5051208;28;20569;-80
2022/04/10 12:44:26;;;;;;;4.28;0.70;;;11.40;99.80;;;;;;5067505;28;20048;-80
2022/04/10 12:46:52;;;;;;;5.95;0.90;;;11.20;99.00;;;;;;5083944;28;20041;-80
2022/04/10 12:49:18;;;;;;;4.20;0.70;;;11.10;99.90;;;;;;5050118;28;20044;-80
2022/04/10 12:51:56;;;;;;;2.42;0.77;;;11.30;99.90;;;;;;5066909;28;20057;-80
2022/04/10 12:54:41;;;;;;;6.60;1.00;;;11.50;99.90;;;;;;5083471;28;20075;-80
2022/04/10 12:57:23;;;;;;;6.45;0.70;;;11.90;98.20;;;;;;5066672;28;20033;-80
2022/04/10 12:59:49;;;;;;;2.72;0.60;;;12.20;95.30;;;;;;5083672;28;20082;-80
2022/04/10 13:02:24;;;;;;;2.65;0.88;;;12.50;95.50;;;;;;5052168;28;20049;-81